Graceful Lady — 00 — position and weather

sailwx.info

Track history (hours):
 
Tides and Currents Weather Stations Pressure Air Temp Water Temp Dewpoint Dewpoint Depression Visibility Wind Speed Wind Dir Waves Ship Positions

Graceful Lady

Last reported at 2015-Sep-01 15:33 UTC. Time now 2015-Sep-01 16:15 UTC.
Position N 41°17' W 071°30'.

Length 6 m.

Type: Pollution control. MMSI: 316014038.

Date/timePositionNaut miles runAvg speedWind from/ knotsBaromVisibWave heightAir tempDewpointWater temp
2015-Sep-01 15:33N 41°17' W 071°30'9 9.0
2015-Sep-01 14:31N 41°07' W 071°30'4 4.2
2015-Sep-01 13:33N 41°11' W 071°32'9460630.9
2015-Aug-31 22:33N 23°06' E 113°27'0 0.0
2015-Aug-31 21:33N 23°06' E 113°27'0 0.0
2015-Aug-31 20:33N 23°06' E 113°27'0 0.0
2015-Aug-31 19:33N 23°06' E 113°27'0 0.0
2015-Aug-31 18:33N 23°06' E 113°27'0 0.0
2015-Aug-31 17:33N 23°06' E 113°27'0 0.0
2015-Aug-31 16:32N 23°06' E 113°27'0 0.0
2015-Aug-31 15:33N 23°06' E 113°27'0 0.0
2015-Aug-31 11:24N 23°06' E 113°27'0 0.1
2015-Aug-31 10:33N 23°06' E 113°27'0 0.0
2015-Aug-31 09:33N 23°06' E 113°27'1 1.0
2015-Aug-31 08:33N 23°05' E 113°26'0 0.0
2015-Aug-31 07:33N 23°05' E 113°26'2 1.7
2015-Aug-31 06:33N 23°05' E 113°28'5 4.7
2015-Aug-31 05:28N 23°01' E 113°32'1 0.7
2015-Aug-31 04:33N 23°01' E 113°31'6707137.9
2015-Aug-31 04:27N 32°08' E 120°48'670749.9
2015-Aug-31 03:33N 23°01' E 113°31'66612678.8
2015-Aug-31 03:30N 32°04' E 120°45'666699.4
2015-Aug-31 02:33N 23°01' E 113°31'98012419.6
2015-Aug-31 02:28N 38°55' E 117°53'9801032.5
2015-Aug-31 01:32N 23°01' E 113°31'6624020.9
2015-Aug-31 01:22N 31°05' E 121°58'662820.5
2015-Aug-31 00:33N 23°01' E 113°32'661793582.8
2015-Aug-31 00:33N 31°08' E 121°54'661662.6
2015-Aug-30 23:33N 23°01' E 113°32'66236091.7
2015-Aug-30 23:32N 31°15' E 121°46'662670.2
2015-Aug-30 22:33N 23°01' E 113°32'6614280.5
2015-Aug-30 22:24N 31°23' E 121°36'60598.2
2015-Aug-30 22:18N 32°04' E 120°45'665829.2
2015-Aug-30 21:30N 23°01' E 113°32'66047513.2
2015-Aug-30 21:29N 31°28' E 121°27'660713.2
2015-Aug-30 20:33N 23°01' E 113°32'0 0.0
2015-Aug-30 19:33N 23°01' E 113°32'0 0.0
2015-Aug-30 18:33N 23°01' E 113°32'0 0.0
2015-Aug-30 17:28N 23°01' E 113°32'815732809.9
2015-Aug-30 17:13N 29°33' W 095°02'74337114.5
2015-Aug-30 16:11N 31°47' E 120°59'6591056.7
2015-Aug-30 15:33N 23°02' E 113°31'65815187.4
2015-Aug-30 15:31N 31°49' E 120°55'658688.1
2015-Aug-30 14:33N 23°02' E 113°31'66311055.2
2015-Aug-30 14:30N 31°58' E 120°51'663682.7
2015-Aug-30 13:31N 23°02' E 113°31'0 0.0
2015-Aug-30 12:33N 23°02' E 113°31'0 0.0
2015-Aug-30 11:33N 23°02' E 113°31'0 0.0
2015-Aug-30 10:33N 23°02' E 113°31'0 0.0
2015-Aug-30 09:33N 23°02' E 113°31'0 0.0
2015-Aug-30 08:30N 23°02' E 113°31'0 0.0
2015-Aug-30 07:34N 23°02' E 113°31'6821126572.3
2015-Aug-30 07:30N 33°37' W 117°55'68217125.7
2015-Aug-30 06:33N 23°02' E 113°31'0 0.0
2015-Aug-30 05:33N 23°02' E 113°31'0 0.0
2015-Aug-30 04:32N 23°02' E 113°31'0 0.0
2015-Aug-30 03:32N 23°02' E 113°31'1 1.2
2015-Aug-30 02:33N 23°03' E 113°31'66657085.2
2015-Aug-30 02:33N 32°06' E 120°46'667670.7
2015-Aug-30 01:33N 23°02' E 113°31'0 0.3
2015-Aug-30 00:33N 23°02' E 113°31'0 0.0
2015-Aug-29 23:33N 23°02' E 113°31'0 0.0
2015-Aug-29 22:32N 23°02' E 113°31'0 0.0
2015-Aug-29 21:33N 23°02' E 113°31'0 0.0
2015-Aug-29 20:32N 23°02' E 113°31'0 0.0
2015-Aug-29 19:34N 23°02' E 113°31'0 0.0
2015-Aug-29 18:33N 23°02' E 113°31'0 0.0
2015-Aug-29 17:33N 23°02' E 113°31'6581754.9
2015-Aug-29 17:11N 32°00' E 120°37'6581009.4
2015-Aug-29 16:32N 23°02' E 113°31'81577341483.5
2015-Aug-29 16:32N 29°33' W 095°02'743420858.1
2015-Aug-29 16:10N 32°01' E 120°48'6641066.9
2015-Aug-29 15:33N 23°02' E 113°31'0 0.0
2015-Aug-29 11:30N 23°02' E 113°31'0 0.0
2015-Aug-29 10:33N 23°02' E 113°31'0 0.0
2015-Aug-29 09:31N 23°02' E 113°31'66412925.5
2015-Aug-29 09:28N 32°01' E 120°49'664731.5
2015-Aug-29 08:33N 23°02' E 113°31'6614361.2
2015-Aug-29 08:24N 31°54' E 120°53'662780.0
2015-Aug-29 07:33N 23°01' E 113°32'0 0.1
2015-Aug-29 06:32N 23°01' E 113°32'980992.0
2015-Aug-29 05:33N 38°55' E 117°52'980882093.1
2015-Aug-29 05:33N 23°01' E 113°32'66111175.2
2015-Aug-29 05:30N 31°39' E 121°14'661697.5
2015-Aug-29 04:33N 23°01' E 113°32'982221.8
2015-Aug-29 00:07N 38°59' E 117°43'60231496.8
2015-Aug-28 20:06N 33°37' W 117°55'68231032.8
2015-Aug-28 13:29N 22°54' E 113°34'665705.2
2015-Aug-28 12:33N 31°28' E 121°28'66015040.0
2015-Aug-28 12:30N 23°03' E 113°30'5 5.2
2015-Aug-28 11:33N 23°06' E 113°26'6606384.7
2015-Aug-28 11:27N 31°25' E 121°31'660304.9
2015-Aug-28 09:17N 23°05' E 113°26'0 0.0
2015-Aug-28 08:32N 23°05' E 113°26'1 0.9
2015-Aug-28 07:32N 23°06' E 113°27'0 0.0
2015-Aug-28 06:33N 23°06' E 113°27'0 0.0
2015-Aug-28 05:29N 23°06' E 113°27'0 0.0
2015-Aug-28 04:32N 23°06' E 113°27'0 0.4
2015-Aug-28 03:33N 23°06' E 113°26'0 0.0
2015-Aug-28 02:33N 23°06' E 113°26'6593719.8
2015-Aug-28 02:22N 31°29' E 121°26'8 8.7
2015-Aug-28 01:30N 31°24' E 121°33'61002065.6
2015-Aug-27 22:33N 33°37' W 117°55'0 0.0
2015-Aug-27 10:33N 33°37' W 117°55'61261999.3
2015-Aug-27 07:30N 29°58' E 122°03'13667.0
2015-Aug-27 05:28N 31°58' E 120°50'0 0.0
2015-Aug-27 04:33N 31°58' E 120°50'6651429.3
2015-Aug-27 04:05N 22°59' E 113°31'6651210.3
2015-Aug-27 03:32N 31°58' E 120°50'66314126.8
2015-Aug-27 03:29N 23°01' E 113°32'0 0.1
2015-Aug-27 02:28N 23°01' E 113°32'6631723.7
2015-Aug-27 02:05N 31°58' E 120°50'6631221.8
2015-Aug-27 01:32N 23°01' E 113°32'6632788.9
2015-Aug-27 01:18N 31°58' E 120°50'0 0.0
2015-Aug-27 00:33N 31°58' E 120°50'66327759.6
2015-Aug-27 00:32N 23°01' E 113°32'68216813.0
2015-Aug-26 23:32N 33°37' W 117°55'6117109556.2
2015-Aug-26 23:29N 31°58' E 120°50'663140431.8
2015-Aug-26 23:28N 23°01' E 113°32'0 0.0
2015-Aug-26 22:33N 23°01' E 113°32'6639146.9
2015-Aug-26 22:29N 31°58' E 120°50'0 0.0
2015-Aug-26 21:33N 31°58' E 120°50'66382322.1
2015-Aug-26 21:32N 23°01' E 113°32'945928737.4
2015-Aug-26 21:13N 41°23' W 071°31'6 9.7
2015-Aug-26 20:33N 41°18' W 071°26'9459395953.8
2015-Aug-26 20:32N 23°01' E 113°32'6631193661.9
2015-Aug-26 20:32N 31°58' E 120°50'92759440.5
2015-Aug-26 19:33N 41°09' W 071°17'9458479570.5
2015-Aug-26 19:32N 23°01' E 113°32'66339789.0
2015-Aug-26 19:31N 31°58' E 120°50'142607.2
2015-Aug-26 19:17N 29°54' E 122°09'947013122.0
2015-Aug-26 18:33N 41°09' W 071°17'945811349562.2
2015-Aug-26 18:33N 23°01' E 113°32'66317052.3
2015-Aug-26 18:31N 31°58' E 120°50'92779669.2
2015-Aug-26 17:33N 41°08' W 071°18'9277412309.5
2015-Aug-26 17:32N 31°58' E 120°50'6635134.4
2015-Aug-26 17:24N 23°01' E 113°32'945911161.5
2015-Aug-26 16:33N 41°08' W 071°18'9460309583.7
2015-Aug-26 16:32N 23°01' E 113°32'94599768.8
2015-Aug-26 15:33N 41°08' W 071°17'9459288594.4
2015-Aug-26 15:31N 23°01' E 113°32'94609788.8
2015-Aug-26 14:33N 41°09' W 071°19'94524860866.9
2015-Aug-26 14:33N 23°05' E 113°27'66382245.6
2015-Aug-26 14:33N 31°58' E 120°51'663668.7
2015-Aug-26 13:33N 23°06' E 113°27'945296121.8
2015-Aug-26 13:28N 41°20' W 071°29'927623433.8
2015-Aug-26 13:04N 31°58' E 120°51'6631304.9
2015-Aug-26 12:33N 23°06' E 113°27'6632776.9
2015-Aug-26 12:19N 31°58' E 120°51'663870.3
2015-Aug-26 11:33N 23°06' E 113°27'0 0.0
2015-Aug-26 10:33N 23°06' E 113°27'66362773.1
2015-Aug-26 10:33N 31°58' E 120°51'663665.2
2015-Aug-26 09:33N 23°06' E 113°27'0 0.0
2015-Aug-26 08:33N 23°06' E 113°27'6631936.2
2015-Aug-26 08:12N 31°58' E 120°51'663982.4
2015-Aug-26 07:32N 23°06' E 113°27'0 0.0
2015-Aug-26 06:30N 23°06' E 113°27'0 0.0
2015-Aug-26 05:33N 23°06' E 113°27'0 0.0
2015-Aug-26 04:33N 23°06' E 113°27'663660.0
2015-Aug-26 03:33N 31°58' E 120°51'66351921.4
2015-Aug-26 03:32N 23°05' E 113°26'1 0.5
2015-Aug-26 02:31N 23°05' E 113°26'6644835.5
2015-Aug-26 02:23N 31°58' E 120°51'0 0.0
2015-Aug-26 01:33N 31°58' E 120°51'664159249.5
2015-Aug-26 01:33N 23°05' E 113°26'664664.8
2015-Aug-26 00:33N 31°58' E 120°51'66445937.3
2015-Aug-26 00:32N 23°05' E 113°26'0 0.0
2015-Aug-25 23:33N 23°05' E 113°26'66418517.4
2015-Aug-25 23:31N 31°58' E 120°51'664695.6
2015-Aug-25 22:33N 23°05' E 113°26'664103857.1
2015-Aug-25 22:33N 31°58' E 120°51'0 0.0
2015-Aug-25 21:33N 31°58' E 120°51'66443431.4
2015-Aug-25 21:32N 23°05' E 113°26'0 0.0
2015-Aug-25 20:30N 23°05' E 113°26'66432280.0
2015-Aug-25 20:28N 31°58' E 120°51'664722.5
2015-Aug-25 19:33N 23°05' E 113°26'66411943.6
2015-Aug-25 19:30N 31°58' E 120°51'664686.2
2015-Aug-25 18:32N 23°05' E 113°26'0 0.0
2015-Aug-25 17:32N 23°05' E 113°26'66412441.1
2015-Aug-25 17:29N 31°58' E 120°51'664679.2
2015-Aug-25 16:31N 23°05' E 113°26'0 0.0
2015-Aug-25 15:30N 23°05' E 113°26'66319553.9
2015-Aug-25 15:28N 31°58' E 120°50'663684.1
2015-Aug-25 14:30N 23°05' E 113°26'0 0.0
2015-Aug-25 13:33N 23°05' E 113°26'94513402500.5
2015-Aug-25 13:33N 41°22' W 071°31'94519477.7
2015-Aug-25 12:33N 23°05' E 113°26'94645678321.9
2015-Aug-25 12:33N 41°17' W 071°41'94649479.7
2015-Aug-25 11:33N 23°05' E 113°26'0 0.0
2015-Aug-25 10:33N 23°05' E 113°26'0 0.0
2015-Aug-25 09:33N 23°05' E 113°26'0 0.0
2015-Aug-25 08:33N 23°05' E 113°26'0 0.0
2015-Aug-25 07:33N 23°05' E 113°26'0 0.0
2015-Aug-25 06:33N 23°05' E 113°26'0 0.0
2015-Aug-25 05:32N 23°05' E 113°26'0 0.0
2015-Aug-25 04:33N 23°05' E 113°26'0 0.0
2015-Aug-25 03:32N 23°05' E 113°26'0 0.0
2015-Aug-25 02:34N 23°05' E 113°26'0 0.0
2015-Aug-25 01:33N 23°05' E 113°26'0 0.0
2015-Aug-25 00:31N 23°05' E 113°26'0 0.0
2015-Aug-24 23:33N 23°05' E 113°26'0 0.0
2015-Aug-24 22:33N 23°05' E 113°26'619231843.5
2015-Aug-24 22:22N 49°18' W 122°54'61927502.7
2015-Aug-24 21:32N 23°05' E 113°26'6183390499.1
2015-Aug-24 21:31N 49°17' W 123°05'61836354.1
2015-Aug-24 20:33N 23°05' E 113°26'6183229468.5
2015-Aug-24 20:31N 49°17' W 123°05'61836388.8
2015-Aug-24 19:33N 23°05' E 113°26'6183193551.7
2015-Aug-24 19:31N 49°17' W 123°05'61836423.8
2015-Aug-24 18:34N 23°05' E 113°26'6183164877.4
2015-Aug-24 18:31N 49°17' W 123°05'61836394.3
2015-Aug-24 17:33N 23°05' E 113°26'6183187045.8
2015-Aug-24 17:31N 49°17' W 123°05'538638322.8
2015-Aug-24 17:23N 31°32' E 121°21'659798.0
2015-Aug-24 16:33N 23°05' E 113°26'6183250094.9
2015-Aug-24 16:32N 49°17' W 123°05'2 2.4
2015-Aug-24 15:33N 49°18' W 123°02'61855566714.6
2015-Aug-24 15:33N 23°05' E 113°26'0 0.0
2015-Aug-24 14:33N 23°05' E 113°26'0 0.0
2015-Aug-24 13:31N 23°05' E 113°26'0 0.0
2015-Aug-24 12:33N 23°05' E 113°26'0 0.0
2015-Aug-24 11:33N 23°05' E 113°26'0 0.0
2015-Aug-24 10:33N 23°05' E 113°26'0 0.0
2015-Aug-24 09:33N 23°05' E 113°26'0 0.0
2015-Aug-24 08:33N 23°05' E 113°26'0 0.0
2015-Aug-24 07:33N 23°05' E 113°26'0 0.0
2015-Aug-24 06:33N 23°05' E 113°26'0 0.0
2015-Aug-24 05:33N 23°05' E 113°26'0 0.0
2015-Aug-24 04:33N 23°05' E 113°26'0 0.0
2015-Aug-24 03:33N 23°05' E 113°26'0 0.0
2015-Aug-24 02:33N 23°05' E 113°26'0 0.0
2015-Aug-24 01:33N 23°05' E 113°26'0 0.0
2015-Aug-24 00:32N 23°05' E 113°26'0 0.0
2015-Aug-23 23:32N 23°05' E 113°26'0 0.0
2015-Aug-23 22:33N 23°05' E 113°26'0 0.0
2015-Aug-23 21:32N 23°05' E 113°26'0 0.0
2015-Aug-23 20:33N 23°05' E 113°26'0 0.0
2015-Aug-23 19:32N 23°05' E 113°26'0 0.0
2015-Aug-23 18:33N 23°05' E 113°26'0 0.0
2015-Aug-23 17:33N 23°05' E 113°26'0 0.0
2015-Aug-23 16:28N 23°05' E 113°26'0 0.0
2015-Aug-23 15:32N 23°05' E 113°26'6632385505.0
2015-Aug-23 15:32N 31°58' E 120°50'663674.1
2015-Aug-23 14:33N 23°05' E 113°26'66318783.5
2015-Aug-23 14:31N 31°58' E 120°50'663686.9
2015-Aug-23 13:33N 23°05' E 113°26'6638738.1
2015-Aug-23 13:29N 31°58' E 120°50'663700.8
2015-Aug-23 12:32N 23°05' E 113°26'6633393.2
2015-Aug-23 12:20N 31°58' E 120°50'663843.8
2015-Aug-23 11:33N 23°05' E 113°26'0 0.0
2015-Aug-23 10:33N 23°05' E 113°26'0 0.0
2015-Aug-23 09:33N 23°05' E 113°26'0 0.0
2015-Aug-23 08:32N 23°05' E 113°26'0 0.0
2015-Aug-23 07:33N 23°05' E 113°26'0 0.0
2015-Aug-23 06:33N 23°05' E 113°26'0 0.0
2015-Aug-23 05:33N 23°05' E 113°26'0 0.0
2015-Aug-23 04:33N 23°05' E 113°26'0 0.0
2015-Aug-23 03:33N 23°05' E 113°26'0 0.0
2015-Aug-23 02:32N 23°05' E 113°26'6636054.6
2015-Aug-23 02:26N 31°58' E 120°50'663751.8
2015-Aug-23 01:33N 23°05' E 113°26'663170393.2
2015-Aug-23 01:33N 31°58' E 120°50'0 0.1
2015-Aug-23 00:33N 31°58' E 120°50'6632385357.3
2015-Aug-23 00:33N 23°05' E 113°26'0 0.0
2015-Aug-22 23:33N 23°05' E 113°26'66310696.8
2015-Aug-22 23:30N 31°58' E 120°50'663696.7
2015-Aug-22 22:33N 23°05' E 113°26'66342597.2
2015-Aug-22 22:32N 31°58' E 120°50'663676.0
2015-Aug-22 21:33N 23°05' E 113°26'66364469.6
2015-Aug-22 21:32N 31°58' E 120°50'0 0.1
2015-Aug-22 20:33N 31°58' E 120°50'66370162.4
2015-Aug-22 20:33N 23°05' E 113°26'0 0.0
2015-Aug-22 19:34N 23°05' E 113°26'66361167.2
2015-Aug-22 19:33N 31°58' E 120°50'663669.7
2015-Aug-22 18:34N 23°05' E 113°26'663265056.1
2015-Aug-22 18:33N 31°58' E 120°50'663661.5
2015-Aug-22 17:33N 23°05' E 113°26'66364473.6
2015-Aug-22 17:33N 31°58' E 120°50'0 0.0
2015-Aug-22 16:33N 31°58' E 120°50'66326214.3
2015-Aug-22 16:31N 23°05' E 113°26'  
Track history (hours):
 
Tides and Currents Weather Stations Pressure Air Temp Water Temp Dewpoint Dewpoint Depression Visibility Wind Speed Wind Dir Waves Ship Positions

Graceful Lady

Last reported at 2015-Sep-01 15:33 UTC. Time now 2015-Sep-01 16:15 UTC.
Position N 41°17' W 071°30'.

Length 6 m.

Type: Pollution control. MMSI: 316014038.

Date/timePositionNaut miles runAvg speedWind from/ knotsBaromVisibWave heightAir tempDewpointWater temp
2015-Sep-01 15:33N 41°17' W 071°30'9 9.0
2015-Sep-01 14:31N 41°07' W 071°30'4 4.2
2015-Sep-01 13:33N 41°11' W 071°32'9460630.9
2015-Aug-31 22:33N 23°06' E 113°27'0 0.0
2015-Aug-31 21:33N 23°06' E 113°27'0 0.0
2015-Aug-31 20:33N 23°06' E 113°27'0 0.0
2015-Aug-31 19:33N 23°06' E 113°27'0 0.0
2015-Aug-31 18:33N 23°06' E 113°27'0 0.0
2015-Aug-31 17:33N 23°06' E 113°27'0 0.0
2015-Aug-31 16:32N 23°06' E 113°27'0 0.0
2015-Aug-31 15:33N 23°06' E 113°27'0 0.0
2015-Aug-31 11:24N 23°06' E 113°27'0 0.1
2015-Aug-31 10:33N 23°06' E 113°27'0 0.0
2015-Aug-31 09:33N 23°06' E 113°27'1 1.0
2015-Aug-31 08:33N 23°05' E 113°26'0 0.0
2015-Aug-31 07:33N 23°05' E 113°26'2 1.7
2015-Aug-31 06:33N 23°05' E 113°28'5 4.7
2015-Aug-31 05:28N 23°01' E 113°32'1 0.7
2015-Aug-31 04:33N 23°01' E 113°31'6707137.9
2015-Aug-31 04:27N 32°08' E 120°48'670749.9
2015-Aug-31 03:33N 23°01' E 113°31'66612678.8
2015-Aug-31 03:30N 32°04' E 120°45'666699.4
2015-Aug-31 02:33N 23°01' E 113°31'98012419.6
2015-Aug-31 02:28N 38°55' E 117°53'9801032.5
2015-Aug-31 01:32N 23°01' E 113°31'6624020.9
2015-Aug-31 01:22N 31°05' E 121°58'662820.5
2015-Aug-31 00:33N 23°01' E 113°32'661793582.8
2015-Aug-31 00:33N 31°08' E 121°54'661662.6
2015-Aug-30 23:33N 23°01' E 113°32'66236091.7
2015-Aug-30 23:32N 31°15' E 121°46'662670.2
2015-Aug-30 22:33N 23°01' E 113°32'6614280.5
2015-Aug-30 22:24N 31°23' E 121°36'60598.2
2015-Aug-30 22:18N 32°04' E 120°45'665829.2
2015-Aug-30 21:30N 23°01' E 113°32'66047513.2
2015-Aug-30 21:29N 31°28' E 121°27'660713.2
2015-Aug-30 20:33N 23°01' E 113°32'0 0.0
2015-Aug-30 19:33N 23°01' E 113°32'0 0.0
2015-Aug-30 18:33N 23°01' E 113°32'0 0.0
2015-Aug-30 17:28N 23°01' E 113°32'815732809.9
2015-Aug-30 17:13N 29°33' W 095°02'74337114.5
2015-Aug-30 16:11N 31°47' E 120°59'6591056.7
2015-Aug-30 15:33N 23°02' E 113°31'65815187.4
2015-Aug-30 15:31N 31°49' E 120°55'658688.1
2015-Aug-30 14:33N 23°02' E 113°31'66311055.2
2015-Aug-30 14:30N 31°58' E 120°51'663682.7
2015-Aug-30 13:31N 23°02' E 113°31'0 0.0
2015-Aug-30 12:33N 23°02' E 113°31'0 0.0
2015-Aug-30 11:33N 23°02' E 113°31'0 0.0
2015-Aug-30 10:33N 23°02' E 113°31'0 0.0
2015-Aug-30 09:33N 23°02' E 113°31'0 0.0
2015-Aug-30 08:30N 23°02' E 113°31'0 0.0
2015-Aug-30 07:34N 23°02' E 113°31'6821126572.3
2015-Aug-30 07:30N 33°37' W 117°55'68217125.7
2015-Aug-30 06:33N 23°02' E 113°31'0 0.0
2015-Aug-30 05:33N 23°02' E 113°31'0 0.0
2015-Aug-30 04:32N 23°02' E 113°31'0 0.0
2015-Aug-30 03:32N 23°02' E 113°31'1 1.2
2015-Aug-30 02:33N 23°03' E 113°31'66657085.2
2015-Aug-30 02:33N 32°06' E 120°46'667670.7
2015-Aug-30 01:33N 23°02' E 113°31'0 0.3
2015-Aug-30 00:33N 23°02' E 113°31'0 0.0
2015-Aug-29 23:33N 23°02' E 113°31'0 0.0
2015-Aug-29 22:32N 23°02' E 113°31'0 0.0
2015-Aug-29 21:33N 23°02' E 113°31'0 0.0
2015-Aug-29 20:32N 23°02' E 113°31'0 0.0
2015-Aug-29 19:34N 23°02' E 113°31'0 0.0
2015-Aug-29 18:33N 23°02' E 113°31'0 0.0
2015-Aug-29 17:33N 23°02' E 113°31'6581754.9
2015-Aug-29 17:11N 32°00' E 120°37'6581009.4
2015-Aug-29 16:32N 23°02' E 113°31'81577341483.5
2015-Aug-29 16:32N 29°33' W 095°02'743420858.1
2015-Aug-29 16:10N 32°01' E 120°48'6641066.9
2015-Aug-29 15:33N 23°02' E 113°31'0 0.0
2015-Aug-29 11:30N 23°02' E 113°31'0 0.0
2015-Aug-29 10:33N 23°02' E 113°31'0 0.0
2015-Aug-29 09:31N 23°02' E 113°31'66412925.5
2015-Aug-29 09:28N 32°01' E 120°49'664731.5
2015-Aug-29 08:33N 23°02' E 113°31'6614361.2
2015-Aug-29 08:24N 31°54' E 120°53'662780.0
2015-Aug-29 07:33N 23°01' E 113°32'0 0.1
2015-Aug-29 06:32N 23°01' E 113°32'980992.0
2015-Aug-29 05:33N 38°55' E 117°52'980882093.1
2015-Aug-29 05:33N 23°01' E 113°32'66111175.2
2015-Aug-29 05:30N 31°39' E 121°14'661697.5
2015-Aug-29 04:33N 23°01' E 113°32'982221.8
2015-Aug-29 00:07N 38°59' E 117°43'60231496.8
2015-Aug-28 20:06N 33°37' W 117°55'68231032.8
2015-Aug-28 13:29N 22°54' E 113°34'665705.2
2015-Aug-28 12:33N 31°28' E 121°28'66015040.0
2015-Aug-28 12:30N 23°03' E 113°30'5 5.2
2015-Aug-28 11:33N 23°06' E 113°26'6606384.7
2015-Aug-28 11:27N 31°25' E 121°31'660304.9
2015-Aug-28 09:17N 23°05' E 113°26'0 0.0
2015-Aug-28 08:32N 23°05' E 113°26'1 0.9
2015-Aug-28 07:32N 23°06' E 113°27'0 0.0
2015-Aug-28 06:33N 23°06' E 113°27'0 0.0
2015-Aug-28 05:29N 23°06' E 113°27'0 0.0
2015-Aug-28 04:32N 23°06' E 113°27'0 0.4
2015-Aug-28 03:33N 23°06' E 113°26'0 0.0
2015-Aug-28 02:33N 23°06' E 113°26'6593719.8
2015-Aug-28 02:22N 31°29' E 121°26'8 8.7
2015-Aug-28 01:30N 31°24' E 121°33'61002065.6
2015-Aug-27 22:33N 33°37' W 117°55'0 0.0
2015-Aug-27 10:33N 33°37' W 117°55'61261999.3
2015-Aug-27 07:30N 29°58' E 122°03'13667.0
2015-Aug-27 05:28N 31°58' E 120°50'0 0.0
2015-Aug-27 04:33N 31°58' E 120°50'6651429.3
2015-Aug-27 04:05N 22°59' E 113°31'6651210.3
2015-Aug-27 03:32N 31°58' E 120°50'66314126.8
2015-Aug-27 03:29N 23°01' E 113°32'0 0.1
2015-Aug-27 02:28N 23°01' E 113°32'6631723.7
2015-Aug-27 02:05N 31°58' E 120°50'6631221.8
2015-Aug-27 01:32N 23°01' E 113°32'6632788.9
2015-Aug-27 01:18N 31°58' E 120°50'0 0.0
2015-Aug-27 00:33N 31°58' E 120°50'66327759.6
2015-Aug-27 00:32N 23°01' E 113°32'68216813.0
2015-Aug-26 23:32N 33°37' W 117°55'6117109556.2
2015-Aug-26 23:29N 31°58' E 120°50'663140431.8
2015-Aug-26 23:28N 23°01' E 113°32'0 0.0
2015-Aug-26 22:33N 23°01' E 113°32'6639146.9
2015-Aug-26 22:29N 31°58' E 120°50'0 0.0
2015-Aug-26 21:33N 31°58' E 120°50'66382322.1
2015-Aug-26 21:32N 23°01' E 113°32'945928737.4
2015-Aug-26 21:13N 41°23' W 071°31'6 9.7
2015-Aug-26 20:33N 41°18' W 071°26'9459395953.8
2015-Aug-26 20:32N 23°01' E 113°32'6631193661.9
2015-Aug-26 20:32N 31°58' E 120°50'92759440.5
2015-Aug-26 19:33N 41°09' W 071°17'9458479570.5
2015-Aug-26 19:32N 23°01' E 113°32'66339789.0
2015-Aug-26 19:31N 31°58' E 120°50'142607.2
2015-Aug-26 19:17N 29°54' E 122°09'947013122.0
2015-Aug-26 18:33N 41°09' W 071°17'945811349562.2
2015-Aug-26 18:33N 23°01' E 113°32'66317052.3
2015-Aug-26 18:31N 31°58' E 120°50'92779669.2
2015-Aug-26 17:33N 41°08' W 071°18'9277412309.5
2015-Aug-26 17:32N 31°58' E 120°50'6635134.4
2015-Aug-26 17:24N 23°01' E 113°32'945911161.5
2015-Aug-26 16:33N 41°08' W 071°18'9460309583.7
2015-Aug-26 16:32N 23°01' E 113°32'94599768.8
2015-Aug-26 15:33N 41°08' W 071°17'9459288594.4
2015-Aug-26 15:31N 23°01' E 113°32'94609788.8
2015-Aug-26 14:33N 41°09' W 071°19'94524860866.9
2015-Aug-26 14:33N 23°05' E 113°27'66382245.6
2015-Aug-26 14:33N 31°58' E 120°51'663668.7
2015-Aug-26 13:33N 23°06' E 113°27'945296121.8
2015-Aug-26 13:28N 41°20' W 071°29'927623433.8
2015-Aug-26 13:04N 31°58' E 120°51'6631304.9
2015-Aug-26 12:33N 23°06' E 113°27'6632776.9
2015-Aug-26 12:19N 31°58' E 120°51'663870.3
2015-Aug-26 11:33N 23°06' E 113°27'0 0.0
2015-Aug-26 10:33N 23°06' E 113°27'66362773.1
2015-Aug-26 10:33N 31°58' E 120°51'663665.2
2015-Aug-26 09:33N 23°06' E 113°27'0 0.0
2015-Aug-26 08:33N 23°06' E 113°27'6631936.2
2015-Aug-26 08:12N 31°58' E 120°51'663982.4
2015-Aug-26 07:32N 23°06' E 113°27'0 0.0
2015-Aug-26 06:30N 23°06' E 113°27'0 0.0
2015-Aug-26 05:33N 23°06' E 113°27'0 0.0
2015-Aug-26 04:33N 23°06' E 113°27'663660.0
2015-Aug-26 03:33N 31°58' E 120°51'66351921.4
2015-Aug-26 03:32N 23°05' E 113°26'1 0.5
2015-Aug-26 02:31N 23°05' E 113°26'6644835.5
2015-Aug-26 02:23N 31°58' E 120°51'0 0.0
2015-Aug-26 01:33N 31°58' E 120°51'664159249.5
2015-Aug-26 01:33N 23°05' E 113°26'664664.8
2015-Aug-26 00:33N 31°58' E 120°51'66445937.3
2015-Aug-26 00:32N 23°05' E 113°26'0 0.0
2015-Aug-25 23:33N 23°05' E 113°26'66418517.4
2015-Aug-25 23:31N 31°58' E 120°51'664695.6
2015-Aug-25 22:33N 23°05' E 113°26'664103857.1
2015-Aug-25 22:33N 31°58' E 120°51'0 0.0
2015-Aug-25 21:33N 31°58' E 120°51'66443431.4
2015-Aug-25 21:32N 23°05' E 113°26'0 0.0
2015-Aug-25 20:30N 23°05' E 113°26'66432280.0
2015-Aug-25 20:28N 31°58' E 120°51'664722.5
2015-Aug-25 19:33N 23°05' E 113°26'66411943.6
2015-Aug-25 19:30N 31°58' E 120°51'664686.2
2015-Aug-25 18:32N 23°05' E 113°26'0 0.0
2015-Aug-25 17:32N 23°05' E 113°26'66412441.1
2015-Aug-25 17:29N 31°58' E 120°51'664679.2
2015-Aug-25 16:31N 23°05' E 113°26'0 0.0
2015-Aug-25 15:30N 23°05' E 113°26'66319553.9
2015-Aug-25 15:28N 31°58' E 120°50'663684.1
2015-Aug-25 14:30N 23°05' E 113°26'0 0.0
2015-Aug-25 13:33N 23°05' E 113°26'94513402500.5
2015-Aug-25 13:33N 41°22' W 071°31'94519477.7
2015-Aug-25 12:33N 23°05' E 113°26'94645678321.9
2015-Aug-25 12:33N 41°17' W 071°41'94649479.7
2015-Aug-25 11:33N 23°05' E 113°26'0 0.0
2015-Aug-25 10:33N 23°05' E 113°26'0 0.0
2015-Aug-25 09:33N 23°05' E 113°26'0 0.0
2015-Aug-25 08:33N 23°05' E 113°26'0 0.0
2015-Aug-25 07:33N 23°05' E 113°26'0 0.0
2015-Aug-25 06:33N 23°05' E 113°26'0 0.0
2015-Aug-25 05:32N 23°05' E 113°26'0 0.0
2015-Aug-25 04:33N 23°05' E 113°26'0 0.0
2015-Aug-25 03:32N 23°05' E 113°26'0 0.0
2015-Aug-25 02:34N 23°05' E 113°26'0 0.0
2015-Aug-25 01:33N 23°05' E 113°26'0 0.0
2015-Aug-25 00:31N 23°05' E 113°26'0 0.0
2015-Aug-24 23:33N 23°05' E 113°26'0 0.0
2015-Aug-24 22:33N 23°05' E 113°26'619231843.5
2015-Aug-24 22:22N 49°18' W 122°54'61927502.7
2015-Aug-24 21:32N 23°05' E 113°26'6183390499.1
2015-Aug-24 21:31N 49°17' W 123°05'61836354.1
2015-Aug-24 20:33N 23°05' E 113°26'6183229468.5
2015-Aug-24 20:31N 49°17' W 123°05'61836388.8
2015-Aug-24 19:33N 23°05' E 113°26'6183193551.7
2015-Aug-24 19:31N 49°17' W 123°05'61836423.8
2015-Aug-24 18:34N 23°05' E 113°26'6183164877.4
2015-Aug-24 18:31N 49°17' W 123°05'61836394.3
2015-Aug-24 17:33N 23°05' E 113°26'6183187045.8
2015-Aug-24 17:31N 49°17' W 123°05'538638322.8
2015-Aug-24 17:23N 31°32' E 121°21'659798.0
2015-Aug-24 16:33N 23°05' E 113°26'6183250094.9
2015-Aug-24 16:32N 49°17' W 123°05'2 2.4
2015-Aug-24 15:33N 49°18' W 123°02'61855566714.6
2015-Aug-24 15:33N 23°05' E 113°26'0 0.0
2015-Aug-24 14:33N 23°05' E 113°26'0 0.0
2015-Aug-24 13:31N 23°05' E 113°26'0 0.0
2015-Aug-24 12:33N 23°05' E 113°26'0 0.0
2015-Aug-24 11:33N 23°05' E 113°26'0 0.0
2015-Aug-24 10:33N 23°05' E 113°26'0 0.0
2015-Aug-24 09:33N 23°05' E 113°26'0 0.0
2015-Aug-24 08:33N 23°05' E 113°26'0 0.0
2015-Aug-24 07:33N 23°05' E 113°26'0 0.0
2015-Aug-24 06:33N 23°05' E 113°26'0 0.0
2015-Aug-24 05:33N 23°05' E 113°26'0 0.0
2015-Aug-24 04:33N 23°05' E 113°26'0 0.0
2015-Aug-24 03:33N 23°05' E 113°26'0 0.0
2015-Aug-24 02:33N 23°05' E 113°26'0 0.0
2015-Aug-24 01:33N 23°05' E 113°26'0 0.0
2015-Aug-24 00:32N 23°05' E 113°26'0 0.0
2015-Aug-23 23:32N 23°05' E 113°26'0 0.0
2015-Aug-23 22:33N 23°05' E 113°26'0 0.0
2015-Aug-23 21:32N 23°05' E 113°26'0 0.0
2015-Aug-23 20:33N 23°05' E 113°26'0 0.0
2015-Aug-23 19:32N 23°05' E 113°26'0 0.0
2015-Aug-23 18:33N 23°05' E 113°26'0 0.0
2015-Aug-23 17:33N 23°05' E 113°26'0 0.0
2015-Aug-23 16:28N 23°05' E 113°26'0 0.0
2015-Aug-23 15:32N 23°05' E 113°26'6632385505.0
2015-Aug-23 15:32N 31°58' E 120°50'663674.1
2015-Aug-23 14:33N 23°05' E 113°26'66318783.5
2015-Aug-23 14:31N 31°58' E 120°50'663686.9
2015-Aug-23 13:33N 23°05' E 113°26'6638738.1
2015-Aug-23 13:29N 31°58' E 120°50'663700.8
2015-Aug-23 12:32N 23°05' E 113°26'6633393.2
2015-Aug-23 12:20N 31°58' E 120°50'663843.8
2015-Aug-23 11:33N 23°05' E 113°26'0 0.0
2015-Aug-23 10:33N 23°05' E 113°26'0 0.0
2015-Aug-23 09:33N 23°05' E 113°26'0 0.0
2015-Aug-23 08:32N 23°05' E 113°26'0 0.0
2015-Aug-23 07:33N 23°05' E 113°26'0 0.0
2015-Aug-23 06:33N 23°05' E 113°26'0 0.0
2015-Aug-23 05:33N 23°05' E 113°26'0 0.0
2015-Aug-23 04:33N 23°05' E 113°26'0 0.0
2015-Aug-23 03:33N 23°05' E 113°26'0 0.0
2015-Aug-23 02:32N 23°05' E 113°26'6636054.6
2015-Aug-23 02:26N 31°58' E 120°50'663751.8
2015-Aug-23 01:33N 23°05' E 113°26'663170393.2
2015-Aug-23 01:33N 31°58' E 120°50'0 0.1
2015-Aug-23 00:33N 31°58' E 120°50'6632385357.3
2015-Aug-23 00:33N 23°05' E 113°26'0 0.0
2015-Aug-22 23:33N 23°05' E 113°26'66310696.8
2015-Aug-22 23:30N 31°58' E 120°50'663696.7
2015-Aug-22 22:33N 23°05' E 113°26'66342597.2
2015-Aug-22 22:32N 31°58' E 120°50'663676.0
2015-Aug-22 21:33N 23°05' E 113°26'66364469.6
2015-Aug-22 21:32N 31°58' E 120°50'0 0.1
2015-Aug-22 20:33N 31°58' E 120°50'66370162.4
2015-Aug-22 20:33N 23°05' E 113°26'0 0.0
2015-Aug-22 19:34N 23°05' E 113°26'66361167.2
2015-Aug-22 19:33N 31°58' E 120°50'663669.7
2015-Aug-22 18:34N 23°05' E 113°26'663265056.1
2015-Aug-22 18:33N 31°58' E 120°50'663661.5
2015-Aug-22 17:33N 23°05' E 113°26'66364473.6
2015-Aug-22 17:33N 31°58' E 120°50'0 0.0
2015-Aug-22 16:33N 31°58' E 120°50'66326214.3
2015-Aug-22 16:31N 23°05' E 113°26'  

Dump ship's entire track history